sensor_id;sensor_type;location;lat;lon;timestamp;P1;durP1;ratioP1;P2;durP2;ratioP2
67896;SDS011;54698;48.428;9.964;2022-09-23T00:00:42;9.73;;;5.27;;
67896;SDS011;54698;48.428;9.964;2022-09-23T00:03:09;9.20;;;5.23;;
67896;SDS011;54698;48.428;9.964;2022-09-23T00:05:36;10.83;;;6.43;;
67896;SDS011;54698;48.428;9.964;2022-09-23T00:08:03;10.20;;;5.80;;
67896;SDS011;54698;48.428;9.964;2022-09-23T00:10:30;12.10;;;6.47;;
67896;SDS011;54698;48.428;9.964;2022-09-23T00:12:56;9.90;;;4.90;;
67896;SDS011;54698;48.428;9.964;2022-09-23T00:15:23;10.07;;;4.93;;
67896;SDS011;54698;48.428;9.964;2022-09-23T00:17:49;10.30;;;5.37;;
67896;SDS011;54698;48.428;9.964;2022-09-23T00:20:15;10.30;;;6.37;;
67896;SDS011;54698;48.428;9.964;2022-09-23T00:22:42;11.10;;;5.33;;
67896;SDS011;54698;48.428;9.964;2022-09-23T00:25:08;8.50;;;4.70;;
67896;SDS011;54698;48.428;9.964;2022-09-23T00:27:37;14.67;;;5.13;;
67896;SDS011;54698;48.428;9.964;2022-09-23T00:30:04;10.23;;;5.10;;
67896;SDS011;54698;48.428;9.964;2022-09-23T00:32:32;7.83;;;4.53;;
67896;SDS011;54698;48.428;9.964;2022-09-23T00:34:59;12.67;;;4.90;;
67896;SDS011;54698;48.428;9.964;2022-09-23T00:37:25;9.23;;;5.10;;
67896;SDS011;54698;48.428;9.964;2022-09-23T00:39:52;9.77;;;4.77;;
67896;SDS011;54698;48.428;9.964;2022-09-23T00:42:19;8.03;;;4.37;;
67896;SDS011;54698;48.428;9.964;2022-09-23T00:44:49;9.53;;;5.90;;
67896;SDS011;54698;48.428;9.964;2022-09-23T00:47:19;10.70;;;5.87;;
67896;SDS011;54698;48.428;9.964;2022-09-23T00:49:51;10.50;;;5.57;;
67896;SDS011;54698;48.428;9.964;2022-09-23T00:52:22;11.80;;;5.25;;
67896;SDS011;54698;48.428;9.964;2022-09-23T00:54:49;11.27;;;5.10;;
67896;SDS011;54698;48.428;9.964;2022-09-23T00:57:18;9.33;;;5.23;;
67896;SDS011;54698;48.428;9.964;2022-09-23T00:59:45;10.07;;;4.83;;
67896;SDS011;54698;48.428;9.964;2022-09-23T01:02:13;9.70;;;4.90;;
67896;SDS011;54698;48.428;9.964;2022-09-23T01:04:40;8.43;;;5.13;;
67896;SDS011;54698;48.428;9.964;2022-09-23T01:07:06;8.20;;;5.37;;
67896;SDS011;54698;48.428;9.964;2022-09-23T01:09:32;9.47;;;5.43;;
67896;SDS011;54698;48.428;9.964;2022-09-23T01:11:59;12.63;;;6.10;;
67896;SDS011;54698;48.428;9.964;2022-09-23T01:14:38;10.60;;;5.77;;
67896;SDS011;54698;48.428;9.964;2022-09-23T01:17:18;8.90;;;4.67;;
67896;SDS011;54698;48.428;9.964;2022-09-23T01:19:58;10.07;;;5.47;;
67896;SDS011;54698;48.428;9.964;2022-09-23T01:22:40;10.23;;;5.40;;
67896;SDS011;54698;48.428;9.964;2022-09-23T01:25:21;11.83;;;5.00;;
67896;SDS011;54698;48.428;9.964;2022-09-23T01:28:07;15.57;;;5.97;;
67896;SDS011;54698;48.428;9.964;2022-09-23T01:30:51;10.07;;;5.07;;
67896;SDS011;54698;48.428;9.964;2022-09-23T01:33:27;11.97;;;5.30;;
67896;SDS011;54698;48.428;9.964;2022-09-23T01:36:01;13.13;;;6.13;;
67896;SDS011;54698;48.428;9.964;2022-09-23T01:38:38;9.03;;;4.97;;
67896;SDS011;54698;48.428;9.964;2022-09-23T01:41:12;8.63;;;4.67;;
67896;SDS011;54698;48.428;9.964;2022-09-23T01:43:52;10.30;;;5.57;;
67896;SDS011;54698;48.428;9.964;2022-09-23T01:46:25;12.53;;;5.77;;
67896;SDS011;54698;48.428;9.964;2022-09-23T01:48:56;9.23;;;5.27;;
67896;SDS011;54698;48.428;9.964;2022-09-23T01:51:29;10.40;;;6.10;;
67896;SDS011;54698;48.428;9.964;2022-09-23T01:54:02;10.23;;;6.10;;
67896;SDS011;54698;48.428;9.964;2022-09-23T01:56:35;11.10;;;5.47;;
67896;SDS011;54698;48.428;9.964;2022-09-23T01:59:06;11.03;;;6.10;;
67896;SDS011;54698;48.428;9.964;2022-09-23T02:01:39;10.35;;;6.63;;
67896;SDS011;54698;48.428;9.964;2022-09-23T02:04:09;8.93;;;5.27;;
67896;SDS011;54698;48.428;9.964;2022-09-23T02:06:42;9.13;;;5.10;;
67896;SDS011;54698;48.428;9.964;2022-09-23T02:09:13;9.33;;;5.53;;
67896;SDS011;54698;48.428;9.964;2022-09-23T02:11:40;10.33;;;6.50;;
67896;SDS011;54698;48.428;9.964;2022-09-23T02:14:13;9.33;;;5.30;;
67896;SDS011;54698;48.428;9.964;2022-09-23T02:16:46;10.43;;;5.32;;
67896;SDS011;54698;48.428;9.964;2022-09-23T02:19:17;10.73;;;5.43;;
67896;SDS011;54698;48.428;9.964;2022-09-23T02:21:52;10.10;;;5.90;;
67896;SDS011;54698;48.428;9.964;2022-09-23T02:24:25;10.33;;;5.43;;
67896;SDS011;54698;48.428;9.964;2022-09-23T02:26:57;9.77;;;5.27;;
67896;SDS011;54698;48.428;9.964;2022-09-23T02:29:31;9.53;;;5.17;;
67896;SDS011;54698;48.428;9.964;2022-09-23T02:32:06;9.83;;;5.57;;
67896;SDS011;54698;48.428;9.964;2022-09-23T02:34:40;12.80;;;6.77;;
67896;SDS011;54698;48.428;9.964;2022-09-23T02:37:11;10.07;;;5.63;;
67896;SDS011;54698;48.428;9.964;2022-09-23T02:39:50;13.00;;;6.00;;
67896;SDS011;54698;48.428;9.964;2022-09-23T02:42:26;11.03;;;5.97;;
67896;SDS011;54698;48.428;9.964;2022-09-23T02:45:01;9.83;;;5.70;;
67896;SDS011;54698;48.428;9.964;2022-09-23T02:47:29;9.67;;;4.77;;
67896;SDS011;54698;48.428;9.964;2022-09-23T02:49:58;11.37;;;5.43;;
67896;SDS011;54698;48.428;9.964;2022-09-23T02:52:24;10.43;;;5.90;;
67896;SDS011;54698;48.428;9.964;2022-09-23T02:54:50;13.00;;;6.57;;
67896;SDS011;54698;48.428;9.964;2022-09-23T02:57:16;12.33;;;6.23;;
67896;SDS011;54698;48.428;9.964;2022-09-23T02:59:42;8.77;;;5.27;;
67896;SDS011;54698;48.428;9.964;2022-09-23T03:02:11;11.43;;;6.27;;
67896;SDS011;54698;48.428;9.964;2022-09-23T03:04:56;12.10;;;5.47;;
67896;SDS011;54698;48.428;9.964;2022-09-23T03:07:32;8.57;;;5.17;;
67896;SDS011;54698;48.428;9.964;2022-09-23T03:10:11;8.77;;;4.90;;
67896;SDS011;54698;48.428;9.964;2022-09-23T03:12:46;9.60;;;5.70;;
67896;SDS011;54698;48.428;9.964;2022-09-23T03:15:23;10.93;;;6.47;;
67896;SDS011;54698;48.428;9.964;2022-09-23T03:17:59;12.03;;;6.93;;
67896;SDS011;54698;48.428;9.964;2022-09-23T03:20:38;11.27;;;6.90;;
67896;SDS011;54698;48.428;9.964;2022-09-23T03:23:09;12.25;;;6.72;;
67896;SDS011;54698;48.428;9.964;2022-09-23T03:25:38;10.50;;;5.90;;
67896;SDS011;54698;48.428;9.964;2022-09-23T03:28:06;12.93;;;6.03;;
67896;SDS011;54698;48.428;9.964;2022-09-23T03:30:35;11.40;;;6.97;;
67896;SDS011;54698;48.428;9.964;2022-09-23T03:33:03;10.97;;;6.70;;
67896;SDS011;54698;48.428;9.964;2022-09-23T03:35:33;11.27;;;6.67;;
67896;SDS011;54698;48.428;9.964;2022-09-23T03:38:06;9.70;;;6.20;;
67896;SDS011;54698;48.428;9.964;2022-09-23T03:40:36;9.60;;;5.83;;
67896;SDS011;54698;48.428;9.964;2022-09-23T03:43:05;9.57;;;6.30;;
67896;SDS011;54698;48.428;9.964;2022-09-23T03:45:31;14.53;;;6.43;;
67896;SDS011;54698;48.428;9.964;2022-09-23T03:47:58;12.97;;;6.63;;
67896;SDS011;54698;48.428;9.964;2022-09-23T03:50:25;12.90;;;6.87;;
67896;SDS011;54698;48.428;9.964;2022-09-23T03:52:52;10.10;;;5.67;;
67896;SDS011;54698;48.428;9.964;2022-09-23T03:55:18;12.23;;;6.30;;
67896;SDS011;54698;48.428;9.964;2022-09-23T03:57:44;11.53;;;6.00;;
67896;SDS011;54698;48.428;9.964;2022-09-23T04:00:10;11.20;;;6.60;;
67896;SDS011;54698;48.428;9.964;2022-09-23T04:02:38;11.47;;;6.07;;
67896;SDS011;54698;48.428;9.964;2022-09-23T04:05:05;10.07;;;6.27;;
67896;SDS011;54698;48.428;9.964;2022-09-23T04:07:32;10.63;;;7.03;;
67896;SDS011;54698;48.428;9.964;2022-09-23T04:09:59;12.80;;;6.20;;
67896;SDS011;54698;48.428;9.964;2022-09-23T04:12:25;13.97;;;7.47;;
67896;SDS011;54698;48.428;9.964;2022-09-23T04:14:51;12.00;;;7.30;;
67896;SDS011;54698;48.428;9.964;2022-09-23T04:17:17;11.30;;;6.97;;
67896;SDS011;54698;48.428;9.964;2022-09-23T04:19:43;11.00;;;6.43;;
67896;SDS011;54698;48.428;9.964;2022-09-23T04:22:08;10.37;;;6.00;;
67896;SDS011;54698;48.428;9.964;2022-09-23T04:24:34;11.00;;;6.40;;
67896;SDS011;54698;48.428;9.964;2022-09-23T04:27:02;13.17;;;6.67;;
67896;SDS011;54698;48.428;9.964;2022-09-23T04:29:28;10.30;;;6.13;;
67896;SDS011;54698;48.428;9.964;2022-09-23T04:31:54;12.43;;;5.90;;
67896;SDS011;54698;48.428;9.964;2022-09-23T04:34:20;12.73;;;6.77;;
67896;SDS011;54698;48.428;9.964;2022-09-23T04:36:46;15.23;;;6.20;;
67896;SDS011;54698;48.428;9.964;2022-09-23T04:39:13;10.73;;;5.83;;
67896;SDS011;54698;48.428;9.964;2022-09-23T04:41:41;12.50;;;6.27;;
67896;SDS011;54698;48.428;9.964;2022-09-23T04:44:09;10.47;;;6.70;;
67896;SDS011;54698;48.428;9.964;2022-09-23T04:46:36;11.97;;;6.23;;
67896;SDS011;54698;48.428;9.964;2022-09-23T04:49:02;11.73;;;6.57;;
67896;SDS011;54698;48.428;9.964;2022-09-23T04:51:27;9.97;;;6.23;;
67896;SDS011;54698;48.428;9.964;2022-09-23T04:53:54;11.90;;;7.00;;
67896;SDS011;54698;48.428;9.964;2022-09-23T04:56:20;14.13;;;8.20;;
67896;SDS011;54698;48.428;9.964;2022-09-23T04:58:48;11.63;;;6.80;;
67896;SDS011;54698;48.428;9.964;2022-09-23T05:01:17;11.40;;;6.93;;
67896;SDS011;54698;48.428;9.964;2022-09-23T05:03:44;12.00;;;6.57;;
67896;SDS011;54698;48.428;9.964;2022-09-23T05:06:11;10.63;;;6.50;;
67896;SDS011;54698;48.428;9.964;2022-09-23T05:08:38;11.33;;;6.67;;
67896;SDS011;54698;48.428;9.964;2022-09-23T05:11:06;10.30;;;6.07;;
67896;SDS011;54698;48.428;9.964;2022-09-23T05:13:34;12.53;;;5.87;;
67896;SDS011;54698;48.428;9.964;2022-09-23T05:16:01;12.07;;;6.30;;
67896;SDS011;54698;48.428;9.964;2022-09-23T05:18:30;10.97;;;6.97;;
67896;SDS011;54698;48.428;9.964;2022-09-23T05:20:57;10.40;;;6.57;;
67896;SDS011;54698;48.428;9.964;2022-09-23T05:23:24;11.33;;;6.50;;
67896;SDS011;54698;48.428;9.964;2022-09-23T05:25:54;11.87;;;6.77;;
67896;SDS011;54698;48.428;9.964;2022-09-23T05:28:22;11.90;;;6.50;;
67896;SDS011;54698;48.428;9.964;2022-09-23T05:30:47;12.57;;;6.40;;
67896;SDS011;54698;48.428;9.964;2022-09-23T05:33:13;12.47;;;6.57;;
67896;SDS011;54698;48.428;9.964;2022-09-23T05:35:46;12.50;;;7.60;;
67896;SDS011;54698;48.428;9.964;2022-09-23T05:38:12;11.63;;;7.00;;
67896;SDS011;54698;48.428;9.964;2022-09-23T05:40:38;12.43;;;8.10;;
67896;SDS011;54698;48.428;9.964;2022-09-23T05:43:04;12.97;;;6.87;;
67896;SDS011;54698;48.428;9.964;2022-09-23T05:45:30;12.33;;;7.40;;
67896;SDS011;54698;48.428;9.964;2022-09-23T05:47:56;12.83;;;8.50;;
67896;SDS011;54698;48.428;9.964;2022-09-23T05:50:22;10.60;;;6.07;;
67896;SDS011;54698;48.428;9.964;2022-09-23T05:52:49;12.37;;;6.40;;
67896;SDS011;54698;48.428;9.964;2022-09-23T05:55:14;13.07;;;6.40;;
67896;SDS011;54698;48.428;9.964;2022-09-23T05:57:40;12.37;;;7.03;;
67896;SDS011;54698;48.428;9.964;2022-09-23T06:00:07;12.83;;;6.70;;
67896;SDS011;54698;48.428;9.964;2022-09-23T06:02:34;9.77;;;6.30;;
67896;SDS011;54698;48.428;9.964;2022-09-23T06:05:00;14.53;;;6.93;;
67896;SDS011;54698;48.428;9.964;2022-09-23T06:07:26;9.40;;;5.90;;
67896;SDS011;54698;48.428;9.964;2022-09-23T06:09:53;15.73;;;7.30;;
67896;SDS011;54698;48.428;9.964;2022-09-23T06:12:19;13.10;;;6.23;;
67896;SDS011;54698;48.428;9.964;2022-09-23T06:14:44;10.37;;;6.00;;
67896;SDS011;54698;48.428;9.964;2022-09-23T06:17:10;9.17;;;6.00;;
67896;SDS011;54698;48.428;9.964;2022-09-23T06:19:36;8.90;;;5.13;;
67896;SDS011;54698;48.428;9.964;2022-09-23T06:22:02;9.13;;;5.40;;
67896;SDS011;54698;48.428;9.964;2022-09-23T06:24:27;11.30;;;6.60;;
67896;SDS011;54698;48.428;9.964;2022-09-23T06:26:55;11.90;;;6.07;;
67896;SDS011;54698;48.428;9.964;2022-09-23T06:29:20;10.53;;;6.03;;
67896;SDS011;54698;48.428;9.964;2022-09-23T06:31:47;11.07;;;5.53;;
67896;SDS011;54698;48.428;9.964;2022-09-23T06:34:13;12.90;;;7.03;;
67896;SDS011;54698;48.428;9.964;2022-09-23T06:36:39;8.23;;;4.97;;
67896;SDS011;54698;48.428;9.964;2022-09-23T06:39:05;9.63;;;5.33;;
67896;SDS011;54698;48.428;9.964;2022-09-23T06:41:31;11.27;;;5.90;;
67896;SDS011;54698;48.428;9.964;2022-09-23T06:43:58;10.63;;;6.67;;
67896;SDS011;54698;48.428;9.964;2022-09-23T06:46:24;17.47;;;6.60;;
67896;SDS011;54698;48.428;9.964;2022-09-23T06:48:50;11.23;;;6.60;;
67896;SDS011;54698;48.428;9.964;2022-09-23T06:51:16;10.60;;;5.87;;
67896;SDS011;54698;48.428;9.964;2022-09-23T06:53:42;10.77;;;6.90;;
67896;SDS011;54698;48.428;9.964;2022-09-23T06:56:08;10.77;;;6.60;;
67896;SDS011;54698;48.428;9.964;2022-09-23T06:58:34;13.47;;;7.10;;
67896;SDS011;54698;48.428;9.964;2022-09-23T07:01:03;13.80;;;6.83;;
67896;SDS011;54698;48.428;9.964;2022-09-23T07:03:31;12.37;;;6.17;;
67896;SDS011;54698;48.428;9.964;2022-09-23T07:05:58;10.37;;;6.07;;
67896;SDS011;54698;48.428;9.964;2022-09-23T07:08:24;11.13;;;5.97;;
67896;SDS011;54698;48.428;9.964;2022-09-23T07:10:51;10.90;;;6.47;;
67896;SDS011;54698;48.428;9.964;2022-09-23T07:13:17;10.60;;;6.53;;
67896;SDS011;54698;48.428;9.964;2022-09-23T07:15:47;9.13;;;6.23;;
67896;SDS011;54698;48.428;9.964;2022-09-23T07:18:15;10.67;;;6.90;;
67896;SDS011;54698;48.428;9.964;2022-09-23T07:20:40;11.23;;;6.67;;
67896;SDS011;54698;48.428;9.964;2022-09-23T07:23:06;10.77;;;6.40;;
67896;SDS011;54698;48.428;9.964;2022-09-23T07:25:32;13.53;;;6.00;;
67896;SDS011;54698;48.428;9.964;2022-09-23T07:27:58;11.00;;;7.20;;
67896;SDS011;54698;48.428;9.964;2022-09-23T07:30:24;13.07;;;7.07;;
67896;SDS011;54698;48.428;9.964;2022-09-23T07:32:49;9.67;;;5.83;;
67896;SDS011;54698;48.428;9.964;2022-09-23T07:35:16;11.27;;;6.40;;
67896;SDS011;54698;48.428;9.964;2022-09-23T07:37:43;10.80;;;5.23;;
67896;SDS011;54698;48.428;9.964;2022-09-23T07:40:08;10.23;;;5.93;;
67896;SDS011;54698;48.428;9.964;2022-09-23T07:42:34;10.43;;;5.87;;
67896;SDS011;54698;48.428;9.964;2022-09-23T07:45:00;11.43;;;7.13;;
67896;SDS011;54698;48.428;9.964;2022-09-23T07:47:26;10.07;;;5.87;;
67896;SDS011;54698;48.428;9.964;2022-09-23T07:49:52;10.47;;;6.07;;
67896;SDS011;54698;48.428;9.964;2022-09-23T07:52:19;11.67;;;5.77;;
67896;SDS011;54698;48.428;9.964;2022-09-23T07:54:45;10.00;;;6.17;;
67896;SDS011;54698;48.428;9.964;2022-09-23T07:57:11;11.97;;;6.30;;
67896;SDS011;54698;48.428;9.964;2022-09-23T07:59:36;10.27;;;5.82;;
67896;SDS011;54698;48.428;9.964;2022-09-23T08:02:02;10.80;;;5.72;;
67896;SDS011;54698;48.428;9.964;2022-09-23T08:04:29;9.77;;;5.60;;
67896;SDS011;54698;48.428;9.964;2022-09-23T08:06:56;9.57;;;6.13;;
67896;SDS011;54698;48.428;9.964;2022-09-23T08:09:27;15.75;;;5.65;;
67896;SDS011;54698;48.428;9.964;2022-09-23T08:11:55;8.95;;;6.10;;
67896;SDS011;54698;48.428;9.964;2022-09-23T08:14:20;10.02;;;6.15;;
67896;SDS011;54698;48.428;9.964;2022-09-23T08:16:46;9.30;;;5.68;;
67896;SDS011;54698;48.428;9.964;2022-09-23T08:19:13;9.13;;;5.35;;
67896;SDS011;54698;48.428;9.964;2022-09-23T08:21:40;10.75;;;6.47;;
67896;SDS011;54698;48.428;9.964;2022-09-23T08:24:06;12.57;;;6.70;;
67896;SDS011;54698;48.428;9.964;2022-09-23T08:26:34;10.50;;;5.85;;
67896;SDS011;54698;48.428;9.964;2022-09-23T08:29:00;9.60;;;6.00;;
67896;SDS011;54698;48.428;9.964;2022-09-23T08:31:26;10.95;;;6.55;;
67896;SDS011;54698;48.428;9.964;2022-09-23T08:33:52;9.77;;;5.45;;
67896;SDS011;54698;48.428;9.964;2022-09-23T08:36:18;10.40;;;5.70;;
67896;SDS011;54698;48.428;9.964;2022-09-23T08:38:44;8.60;;;5.13;;
67896;SDS011;54698;48.428;9.964;2022-09-23T08:41:11;11.02;;;6.65;;
67896;SDS011;54698;48.428;9.964;2022-09-23T08:43:47;10.23;;;6.05;;
67896;SDS011;54698;48.428;9.964;2022-09-23T08:46:18;10.65;;;6.30;;
67896;SDS011;54698;48.428;9.964;2022-09-23T08:48:50;13.60;;;7.28;;
67896;SDS011;54698;48.428;9.964;2022-09-23T08:51:18;10.55;;;7.22;;
67896;SDS011;54698;48.428;9.964;2022-09-23T08:53:52;10.15;;;6.30;;
67896;SDS011;54698;48.428;9.964;2022-09-23T08:56:18;11.48;;;6.18;;
67896;SDS011;54698;48.428;9.964;2022-09-23T08:58:52;11.40;;;5.97;;
67896;SDS011;54698;48.428;9.964;2022-09-23T09:01:26;10.90;;;6.70;;
67896;SDS011;54698;48.428;9.964;2022-09-23T09:04:00;12.90;;;5.70;;
67896;SDS011;54698;48.428;9.964;2022-09-23T09:06:28;11.20;;;6.72;;
67896;SDS011;54698;48.428;9.964;2022-09-23T09:08:59;10.05;;;5.50;;
67896;SDS011;54698;48.428;9.964;2022-09-23T09:11:30;12.05;;;6.13;;
67896;SDS011;54698;48.428;9.964;2022-09-23T09:14:04;12.35;;;6.53;;
67896;SDS011;54698;48.428;9.964;2022-09-23T09:16:46;10.63;;;5.90;;
67896;SDS011;54698;48.428;9.964;2022-09-23T09:19:20;9.27;;;5.63;;
67896;SDS011;54698;48.428;9.964;2022-09-23T09:22:20;10.70;;;7.10;;
67896;SDS011;54698;48.428;9.964;2022-09-23T09:24:59;11.93;;;7.57;;
67896;SDS011;54698;48.428;9.964;2022-09-23T09:27:30;8.95;;;5.13;;
67896;SDS011;54698;48.428;9.964;2022-09-23T09:30:09;10.52;;;6.30;;
67896;SDS011;54698;48.428;9.964;2022-09-23T09:32:37;13.50;;;6.15;;
67896;SDS011;54698;48.428;9.964;2022-09-23T09:35:14;10.52;;;6.15;;
67896;SDS011;54698;48.428;9.964;2022-09-23T09:37:48;9.98;;;6.65;;
67896;SDS011;54698;48.428;9.964;2022-09-23T09:40:14;11.20;;;6.43;;
67896;SDS011;54698;48.428;9.964;2022-09-23T09:42:41;13.13;;;7.18;;
67896;SDS011;54698;48.428;9.964;2022-09-23T09:45:13;11.45;;;5.70;;
67896;SDS011;54698;48.428;9.964;2022-09-23T09:47:56;10.40;;;5.65;;
67896;SDS011;54698;48.428;9.964;2022-09-23T09:50:40;10.35;;;6.32;;
67896;SDS011;54698;48.428;9.964;2022-09-23T09:55:57;13.57;;;5.85;;
67896;SDS011;54698;48.428;9.964;2022-09-23T09:58:26;9.73;;;5.53;;
67896;SDS011;54698;48.428;9.964;2022-09-23T10:00:59;10.95;;;5.85;;
67896;SDS011;54698;48.428;9.964;2022-09-23T10:03:29;14.57;;;5.57;;
67896;SDS011;54698;48.428;9.964;2022-09-23T10:05:58;9.15;;;5.45;;
67896;SDS011;54698;48.428;9.964;2022-09-23T10:08:25;8.88;;;5.35;;
67896;SDS011;54698;48.428;9.964;2022-09-23T10:10:59;11.30;;;5.18;;
67896;SDS011;54698;48.428;9.964;2022-09-23T10:15:52;11.05;;;6.10;;
67896;SDS011;54698;48.428;9.964;2022-09-23T10:18:22;9.13;;;5.05;;
67896;SDS011;54698;48.428;9.964;2022-09-23T10:20:58;9.50;;;5.30;;
67896;SDS011;54698;48.428;9.964;2022-09-23T10:23:27;10.85;;;5.55;;
67896;SDS011;54698;48.428;9.964;2022-09-23T10:25:54;9.90;;;6.03;;
67896;SDS011;54698;48.428;9.964;2022-09-23T10:31:14;10.00;;;5.70;;
67896;SDS011;54698;48.428;9.964;2022-09-23T10:33:47;9.60;;;6.43;;
67896;SDS011;54698;48.428;9.964;2022-09-23T10:36:16;11.00;;;5.65;;
67896;SDS011;54698;48.428;9.964;2022-09-23T10:38:42;9.73;;;6.65;;
67896;SDS011;54698;48.428;9.964;2022-09-23T10:41:12;11.30;;;6.32;;
67896;SDS011;54698;48.428;9.964;2022-09-23T10:43:49;11.60;;;6.40;;
67896;SDS011;54698;48.428;9.964;2022-09-23T10:46:26;11.80;;;5.95;;
67896;SDS011;54698;48.428;9.964;2022-09-23T10:48:59;19.35;;;6.47;;
67896;SDS011;54698;48.428;9.964;2022-09-23T10:52:15;10.15;;;6.68;;
67896;SDS011;54698;48.428;9.964;2022-09-23T10:54:57;9.82;;;5.90;;
67896;SDS011;54698;48.428;9.964;2022-09-23T10:57:43;10.45;;;6.25;;
67896;SDS011;54698;48.428;9.964;2022-09-23T11:00:27;10.82;;;6.05;;
67896;SDS011;54698;48.428;9.964;2022-09-23T11:03:08;10.00;;;5.80;;
67896;SDS011;54698;48.428;9.964;2022-09-23T11:05:57;10.20;;;5.65;;
67896;SDS011;54698;48.428;9.964;2022-09-23T11:08:46;10.10;;;5.75;;
67896;SDS011;54698;48.428;9.964;2022-09-23T11:11:27;9.73;;;5.70;;
67896;SDS011;54698;48.428;9.964;2022-09-23T11:14:11;9.25;;;5.65;;
67896;SDS011;54698;48.428;9.964;2022-09-23T11:17:22;9.07;;;6.05;;
67896;SDS011;54698;48.428;9.964;2022-09-23T11:20:20;9.20;;;5.38;;
67896;SDS011;54698;48.428;9.964;2022-09-23T11:23:15;9.43;;;6.10;;
67896;SDS011;54698;48.428;9.964;2022-09-23T11:26:18;8.82;;;5.30;;
67896;SDS011;54698;48.428;9.964;2022-09-23T11:28:59;9.77;;;6.68;;
67896;SDS011;54698;48.428;9.964;2022-09-23T11:31:38;12.45;;;5.75;;
67896;SDS011;54698;48.428;9.964;2022-09-23T11:34:21;10.50;;;5.35;;
67896;SDS011;54698;48.428;9.964;2022-09-23T11:37:06;10.70;;;6.20;;
67896;SDS011;54698;48.428;9.964;2022-09-23T11:39:39;9.15;;;5.95;;
67896;SDS011;54698;48.428;9.964;2022-09-23T11:42:11;9.30;;;5.28;;
67896;SDS011;54698;48.428;9.964;2022-09-23T11:44:44;9.23;;;5.35;;
67896;SDS011;54698;48.428;9.964;2022-09-23T11:49:46;9.82;;;5.53;;
67896;SDS011;54698;48.428;9.964;2022-09-23T11:52:19;10.43;;;5.13;;
67896;SDS011;54698;48.428;9.964;2022-09-23T11:54:53;9.73;;;5.15;;
67896;SDS011;54698;48.428;9.964;2022-09-23T11:57:25;8.35;;;4.75;;
67896;SDS011;54698;48.428;9.964;2022-09-23T11:59:57;9.43;;;5.87;;
67896;SDS011;54698;48.428;9.964;2022-09-23T12:02:27;9.35;;;4.82;;
67896;SDS011;54698;48.428;9.964;2022-09-23T12:05:05;9.55;;;4.93;;
67896;SDS011;54698;48.428;9.964;2022-09-23T12:07:39;8.20;;;4.57;;
67896;SDS011;54698;48.428;9.964;2022-09-23T12:10:16;15.27;;;4.68;;
67896;SDS011;54698;48.428;9.964;2022-09-23T12:12:43;9.60;;;4.78;;
67896;SDS011;54698;48.428;9.964;2022-09-23T12:15:23;8.43;;;5.22;;
67896;SDS011;54698;48.428;9.964;2022-09-23T12:18:05;8.50;;;5.18;;
67896;SDS011;54698;48.428;9.964;2022-09-23T12:21:05;7.97;;;4.35;;
67896;SDS011;54698;48.428;9.964;2022-09-23T12:24:00;10.63;;;5.85;;
67896;SDS011;54698;48.428;9.964;2022-09-23T12:26:52;9.15;;;4.50;;
67896;SDS011;54698;48.428;9.964;2022-09-23T12:29:21;11.30;;;4.88;;
67896;SDS011;54698;48.428;9.964;2022-09-23T12:31:50;9.10;;;5.32;;
67896;SDS011;54698;48.428;9.964;2022-09-23T12:34:21;11.88;;;6.45;;
67896;SDS011;54698;48.428;9.964;2022-09-23T12:36:52;10.70;;;5.72;;
67896;SDS011;54698;48.428;9.964;2022-09-23T12:39:21;10.05;;;5.40;;
67896;SDS011;54698;48.428;9.964;2022-09-23T12:41:56;8.85;;;4.50;;
67896;SDS011;54698;48.428;9.964;2022-09-23T12:44:31;7.93;;;4.60;;
67896;SDS011;54698;48.428;9.964;2022-09-23T13:00:22;8.95;;;4.82;;
67896;SDS011;54698;48.428;9.964;2022-09-23T13:02:56;6.95;;;3.80;;
67896;SDS011;54698;48.428;9.964;2022-09-23T13:05:24;6.53;;;3.00;;
67896;SDS011;54698;48.428;9.964;2022-09-23T13:07:50;6.80;;;3.40;;
67896;SDS011;54698;48.428;9.964;2022-09-23T13:10:24;10.85;;;3.63;;
67896;SDS011;54698;48.428;9.964;2022-09-23T13:12:56;10.38;;;4.15;;
67896;SDS011;54698;48.428;9.964;2022-09-23T13:15:26;7.78;;;4.13;;
67896;SDS011;54698;48.428;9.964;2022-09-23T13:24:37;5.60;;;2.70;;
67896;SDS011;54698;48.428;9.964;2022-09-23T13:27:22;8.50;;;3.13;;
67896;SDS011;54698;48.428;9.964;2022-09-23T13:29:54;6.90;;;3.67;;
67896;SDS011;54698;48.428;9.964;2022-09-23T13:32:24;9.00;;;3.53;;
67896;SDS011;54698;48.428;9.964;2022-09-23T13:34:57;6.72;;;3.47;;
67896;SDS011;54698;48.428;9.964;2022-09-23T13:37:29;7.97;;;3.95;;
67896;SDS011;54698;48.428;9.964;2022-09-23T13:40:05;14.43;;;4.72;;
67896;SDS011;54698;48.428;9.964;2022-09-23T13:42:42;6.35;;;2.95;;
67896;SDS011;54698;48.428;9.964;2022-09-23T13:45:13;7.22;;;3.70;;
67896;SDS011;54698;48.428;9.964;2022-09-23T13:47:42;8.13;;;3.38;;
67896;SDS011;54698;48.428;9.964;2022-09-23T13:50:15;7.32;;;3.40;;
67896;SDS011;54698;48.428;9.964;2022-09-23T13:52:44;9.40;;;2.97;;
67896;SDS011;54698;48.428;9.964;2022-09-23T13:55:23;6.47;;;3.15;;
67896;SDS011;54698;48.428;9.964;2022-09-23T13:57:56;8.00;;;3.50;;
67896;SDS011;54698;48.428;9.964;2022-09-23T14:00:29;9.00;;;3.28;;
67896;SDS011;54698;48.428;9.964;2022-09-23T14:03:00;7.43;;;4.15;;
67896;SDS011;54698;48.428;9.964;2022-09-23T14:05:29;8.02;;;3.50;;
67896;SDS011;54698;48.428;9.964;2022-09-23T14:07:59;8.00;;;3.40;;
67896;SDS011;54698;48.428;9.964;2022-09-23T14:10:26;8.23;;;3.50;;
67896;SDS011;54698;48.428;9.964;2022-09-23T14:12:52;8.18;;;3.80;;
67896;SDS011;54698;48.428;9.964;2022-09-23T14:15:20;10.00;;;4.07;;
67896;SDS011;54698;48.428;9.964;2022-09-23T14:17:49;7.75;;;3.22;;
67896;SDS011;54698;48.428;9.964;2022-09-23T14:20:18;7.82;;;3.33;;
67896;SDS011;54698;48.428;9.964;2022-09-23T14:22:46;6.93;;;3.05;;
67896;SDS011;54698;48.428;9.964;2022-09-23T14:25:12;7.30;;;3.40;;
67896;SDS011;54698;48.428;9.964;2022-09-23T14:27:41;7.00;;;3.20;;
67896;SDS011;54698;48.428;9.964;2022-09-23T14:30:12;6.03;;;2.90;;
67896;SDS011;54698;48.428;9.964;2022-09-23T14:32:40;8.27;;;3.70;;
67896;SDS011;54698;48.428;9.964;2022-09-23T14:35:17;7.10;;;3.45;;
67896;SDS011;54698;48.428;9.964;2022-09-23T14:37:44;6.65;;;3.30;;
67896;SDS011;54698;48.428;9.964;2022-09-23T14:40:14;6.82;;;3.08;;
67896;SDS011;54698;48.428;9.964;2022-09-23T14:42:44;7.55;;;3.47;;
67896;SDS011;54698;48.428;9.964;2022-09-23T14:45:14;6.32;;;3.42;;
67896;SDS011;54698;48.428;9.964;2022-09-23T14:47:45;7.63;;;3.17;;
67896;SDS011;54698;48.428;9.964;2022-09-23T14:50:15;6.38;;;3.70;;
67896;SDS011;54698;48.428;9.964;2022-09-23T14:52:47;7.68;;;3.58;;
67896;SDS011;54698;48.428;9.964;2022-09-23T14:55:13;6.53;;;4.03;;
67896;SDS011;54698;48.428;9.964;2022-09-23T14:57:40;8.07;;;4.10;;
67896;SDS011;54698;48.428;9.964;2022-09-23T15:00:07;8.15;;;3.97;;
67896;SDS011;54698;48.428;9.964;2022-09-23T15:02:42;8.82;;;3.80;;
67896;SDS011;54698;48.428;9.964;2022-09-23T15:05:13;9.20;;;4.30;;
67896;SDS011;54698;48.428;9.964;2022-09-23T15:07:46;9.10;;;4.20;;
67896;SDS011;54698;48.428;9.964;2022-09-23T15:10:18;11.68;;;5.20;;
67896;SDS011;54698;48.428;9.964;2022-09-23T15:12:48;10.15;;;4.38;;
67896;SDS011;54698;48.428;9.964;2022-09-23T15:15:16;8.23;;;3.97;;
67896;SDS011;54698;48.428;9.964;2022-09-23T15:17:43;9.52;;;4.95;;
67896;SDS011;54698;48.428;9.964;2022-09-23T15:20:17;9.85;;;4.05;;
67896;SDS011;54698;48.428;9.964;2022-09-23T15:22:47;7.22;;;3.33;;
67896;SDS011;54698;48.428;9.964;2022-09-23T15:25:16;6.15;;;3.60;;
67896;SDS011;54698;48.428;9.964;2022-09-23T15:27:54;8.25;;;3.22;;
67896;SDS011;54698;48.428;9.964;2022-09-23T15:30:25;7.88;;;3.72;;
67896;SDS011;54698;48.428;9.964;2022-09-23T15:32:51;9.80;;;4.10;;